createdAt,value
2018-03-17T00:00:53.258Z,2.30
2018-03-17T00:03:21.315Z,2.10
2018-03-17T00:05:49.352Z,2.10
2018-03-17T00:08:18.229Z,2.10
2018-03-17T00:10:46.253Z,2.10
2018-03-17T00:13:14.314Z,2.10
2018-03-17T00:15:42.365Z,2.10
2018-03-17T00:18:10.425Z,2.00
2018-03-17T00:20:38.452Z,2.10
2018-03-17T00:23:06.505Z,2.10
2018-03-17T00:25:34.588Z,2.10
2018-03-17T00:28:02.653Z,2.10
2018-03-17T00:30:30.676Z,2.20
2018-03-17T00:32:58.739Z,2.20
2018-03-17T00:35:26.780Z,2.30
2018-03-17T00:37:55.628Z,2.30
2018-03-17T00:40:23.693Z,2.20
2018-03-17T00:42:51.765Z,2.30
2018-03-17T00:45:19.801Z,2.30
2018-03-17T00:47:47.859Z,2.20
2018-03-17T00:50:15.913Z,2.20
2018-03-17T00:52:43.952Z,2.20
2018-03-17T00:55:12.002Z,2.20
2018-03-17T00:57:40.037Z,2.10
2018-03-17T01:00:08.865Z,2.00
2018-03-17T01:02:36.916Z,1.90
2018-03-17T01:05:04.970Z,1.90
2018-03-17T01:07:33.001Z,2.00
2018-03-17T01:10:01.821Z,2.00
2018-03-17T01:12:29.893Z,2.00
2018-03-17T01:14:58.701Z,1.90
2018-03-17T01:17:27.521Z,1.70
2018-03-17T01:19:55.560Z,1.70
2018-03-17T01:22:24.348Z,1.80
2018-03-17T01:24:52.342Z,1.70
2018-03-17T01:27:20.320Z,1.80
2018-03-17T01:29:49.093Z,1.60
2018-03-17T01:32:17.108Z,1.50
2018-03-17T01:34:45.872Z,1.50
2018-03-17T01:37:13.876Z,1.50
2018-03-17T01:39:41.882Z,1.60
2018-03-17T01:42:10.635Z,1.40
2018-03-17T01:44:38.644Z,1.30
2018-03-17T01:47:06.650Z,1.40
2018-03-17T01:49:35.400Z,1.20
2018-03-17T01:52:03.416Z,1.10
2018-03-17T01:54:31.434Z,1.30
2018-03-17T01:57:00.293Z,1.30
2018-03-17T01:59:28.304Z,1.40
2018-03-17T02:01:56.324Z,1.40
2018-03-17T02:04:24.321Z,1.30
2018-03-17T02:06:52.335Z,1.30
2018-03-17T02:09:21.117Z,1.20
2018-03-17T02:11:49.108Z,1.20
2018-03-17T02:14:17.117Z,1.10
2018-03-17T02:16:45.900Z,1.10
2018-03-17T02:19:13.893Z,1.00
2018-03-17T02:21:42.672Z,1.00
2018-03-17T02:24:10.677Z,0.90
2018-03-17T02:26:39.437Z,0.90
2018-03-17T02:29:07.453Z,0.90
2018-03-17T02:31:35.464Z,0.90
2018-03-17T02:34:03.460Z,0.90
2018-03-17T02:36:31.468Z,0.90
2018-03-17T02:38:59.480Z,1.10
2018-03-17T02:41:27.495Z,1.10
2018-03-17T02:43:56.249Z,1.00
2018-03-17T02:46:25.768Z,0.90
2018-03-17T02:48:53.768Z,0.90
2018-03-17T02:51:21.788Z,1.00
2018-03-17T02:53:49.797Z,0.90
2018-03-17T02:56:17.792Z,0.90
2018-03-17T02:58:47.316Z,0.80
2018-03-17T03:01:15.324Z,0.80
2018-03-17T03:03:44.081Z,0.70
2018-03-17T03:06:12.094Z,0.60
2018-03-17T03:08:40.100Z,0.60
2018-03-17T03:11:08.869Z,0.60
2018-03-17T03:13:36.877Z,0.50
2018-03-17T03:16:05.657Z,0.50
2018-03-17T03:18:33.657Z,0.40
2018-03-17T03:21:03.440Z,0.60
2018-03-17T03:23:31.458Z,0.50
2018-03-17T03:26:00.945Z,0.60
2018-03-17T03:28:28.968Z,0.60
2018-03-17T03:30:57.758Z,0.80
2018-03-17T03:33:25.764Z,0.70
2018-03-17T03:35:53.780Z,0.80
2018-03-17T03:38:21.802Z,0.80
2018-03-17T03:40:49.800Z,0.70
2018-03-17T03:43:18.578Z,0.70
2018-03-17T03:45:46.594Z,0.70
2018-03-17T03:48:15.349Z,0.70
2018-03-17T03:50:43.365Z,0.60
2018-03-17T03:53:12.140Z,0.70
2018-03-17T03:55:40.137Z,0.70
2018-03-17T03:58:08.149Z,0.70
2018-03-17T04:00:36.174Z,0.70
2018-03-17T04:03:04.177Z,0.80
2018-03-17T04:05:32.191Z,0.90
2018-03-17T04:08:00.964Z,0.90
2018-03-17T04:10:28.965Z,0.80
2018-03-17T04:12:57.740Z,0.80
2018-03-17T04:15:25.756Z,0.80
2018-03-17T04:17:54.516Z,1.00
2018-03-17T04:20:22.537Z,0.90
2018-03-17T04:22:51.443Z,1.00
2018-03-17T04:25:19.436Z,0.90
2018-03-17T04:27:47.441Z,1.10
2018-03-17T04:30:15.449Z,1.10
2018-03-17T04:32:43.440Z,1.10
2018-03-17T04:35:11.452Z,1.10
2018-03-17T04:37:40.240Z,1.10
2018-03-17T04:40:09.004Z,1.00
2018-03-17T04:42:37.015Z,0.90
2018-03-17T04:45:05.016Z,0.90
2018-03-17T04:47:33.808Z,0.80
2018-03-17T04:50:01.808Z,0.70
2018-03-17T04:52:30.584Z,0.60
2018-03-17T04:54:58.587Z,0.60
2018-03-17T04:57:27.348Z,0.50
2018-03-17T04:59:55.379Z,0.50
2018-03-17T05:02:24.139Z,0.50
2018-03-17T05:04:53.656Z,0.50
2018-03-17T05:07:21.672Z,0.50
2018-03-17T05:09:50.432Z,0.60
2018-03-17T05:12:18.433Z,0.60
2018-03-17T05:14:46.441Z,0.50
2018-03-17T05:17:15.196Z,0.40
2018-03-17T05:19:43.212Z,0.40
2018-03-17T05:22:11.992Z,0.40
2018-03-17T05:24:39.989Z,0.40
2018-03-17T05:27:08.773Z,0.50
2018-03-17T05:29:37.573Z,0.40
2018-03-17T05:32:05.564Z,0.40
2018-03-17T05:34:33.567Z,0.40
2018-03-17T05:37:02.353Z,0.30
2018-03-17T05:39:30.341Z,0.30
2018-03-17T05:41:58.348Z,0.30
2018-03-17T05:44:26.365Z,0.40
2018-03-17T05:46:54.357Z,0.40
2018-03-17T05:49:22.364Z,0.40
2018-03-17T05:51:50.382Z,0.50
2018-03-17T05:54:18.377Z,0.50
2018-03-17T05:56:46.397Z,0.50
2018-03-17T05:59:14.404Z,0.50
2018-03-17T06:01:43.164Z,0.40
2018-03-17T06:04:11.177Z,0.40
2018-03-17T06:06:39.188Z,0.50
2018-03-17T06:09:07.185Z,0.40
2018-03-17T06:11:35.193Z,0.40
2018-03-17T06:14:03.250Z,0.40
2018-03-17T06:16:31.220Z,0.40
2018-03-17T06:19:00.000Z,0.50
2018-03-17T06:21:28.034Z,0.40
2018-03-17T06:23:56.009Z,0.40
2018-03-17T06:26:24.037Z,0.50
2018-03-17T06:28:52.035Z,0.60
2018-03-17T06:31:20.792Z,0.50
2018-03-17T06:33:48.796Z,0.50
2018-03-17T06:36:16.800Z,0.50
2018-03-17T06:38:45.560Z,0.50
2018-03-17T06:41:13.652Z,0.50
2018-03-17T06:43:41.657Z,0.50
2018-03-17T06:46:09.653Z,0.60
2018-03-17T06:48:38.449Z,0.70
2018-03-17T06:51:06.436Z,0.70
2018-03-17T06:53:34.441Z,0.80
2018-03-17T06:56:02.454Z,0.90
2018-03-17T06:58:30.469Z,0.90
2018-03-17T07:00:58.467Z,0.90
2018-03-17T07:03:27.243Z,0.80
2018-03-17T07:05:55.257Z,0.80
2018-03-17T07:08:24.049Z,0.90
2018-03-17T07:10:52.824Z,0.90
2018-03-17T07:13:20.827Z,0.80
2018-03-17T07:15:48.817Z,0.90
2018-03-17T07:18:17.594Z,0.90
2018-03-17T07:20:45.601Z,0.80
2018-03-17T07:23:14.356Z,1.00
2018-03-17T07:25:43.356Z,0.90
2018-03-17T07:28:11.364Z,0.80
2018-03-17T07:30:39.360Z,0.80
2018-03-17T07:33:07.365Z,0.70
2018-03-17T07:35:36.144Z,0.60
2018-03-17T07:38:05.645Z,0.70
2018-03-17T07:40:33.660Z,0.70
2018-03-17T07:43:01.652Z,0.80
2018-03-17T07:45:30.428Z,0.90
2018-03-17T07:47:58.436Z,0.90
2018-03-17T07:50:27.208Z,1.00
2018-03-17T07:52:57.198Z,1.00
2018-03-17T07:55:25.212Z,1.10
2018-03-17T07:57:53.217Z,1.10
2018-03-17T08:00:21.976Z,0.90
2018-03-17T08:02:49.983Z,0.90
2018-03-17T08:05:17.992Z,1.00
2018-03-17T08:07:46.752Z,1.10
2018-03-17T08:10:14.752Z,1.10
2018-03-17T08:12:42.757Z,1.00
2018-03-17T08:15:11.533Z,0.90
2018-03-17T08:17:39.540Z,0.90
2018-03-17T08:20:08.326Z,0.90
2018-03-17T08:22:36.300Z,0.90
2018-03-17T08:25:04.349Z,1.00
2018-03-17T08:27:32.379Z,1.10
2018-03-17T08:30:00.322Z,0.90
2018-03-17T08:32:28.335Z,1.00
2018-03-17T08:34:56.331Z,1.20
2018-03-17T08:37:24.315Z,1.30
2018-03-17T08:39:53.092Z,1.10
2018-03-17T08:42:21.121Z,1.10
2018-03-17T08:44:49.116Z,1.00
2018-03-17T08:47:17.125Z,1.10
2018-03-17T08:49:45.112Z,1.10
2018-03-17T08:52:13.113Z,1.10
2018-03-17T08:54:42.620Z,1.30
2018-03-17T08:57:10.632Z,1.30
2018-03-17T08:59:39.396Z,1.50
2018-03-17T09:02:07.389Z,1.50
2018-03-17T09:04:35.401Z,1.50
2018-03-17T09:07:04.152Z,1.50
2018-03-17T09:09:32.157Z,1.50
2018-03-17T09:12:00.162Z,1.60
2018-03-17T09:14:28.152Z,1.50
2018-03-17T09:16:56.916Z,1.50
2018-03-17T09:19:24.933Z,1.50
2018-03-17T09:21:53.699Z,1.40
2018-03-17T09:24:21.715Z,1.40
2018-03-17T09:26:49.707Z,1.50
2018-03-17T09:29:18.444Z,1.50
2018-03-17T09:31:46.465Z,1.40
2018-03-17T09:34:14.477Z,1.60
2018-03-17T09:36:43.237Z,1.60
2018-03-17T09:39:11.238Z,1.50
2018-03-17T09:41:39.237Z,1.80
2018-03-17T09:44:07.992Z,1.60
2018-03-17T09:46:35.997Z,1.60
2018-03-17T09:49:04.024Z,1.70
2018-03-17T09:51:32.009Z,1.50
2018-03-17T09:54:00.020Z,1.40
2018-03-17T09:56:28.023Z,1.50
2018-03-17T09:58:56.012Z,1.70
2018-03-17T10:01:24.021Z,1.70
2018-03-17T10:03:52.052Z,1.50
2018-03-17T10:06:20.017Z,1.50
2018-03-17T10:08:48.032Z,1.40
2018-03-17T10:11:16.028Z,1.60
2018-03-17T10:13:44.793Z,1.50
2018-03-17T10:16:12.801Z,1.50
2018-03-17T10:18:40.800Z,1.40
2018-03-17T10:21:09.556Z,2.00
2018-03-17T10:23:37.592Z,2.00
2018-03-17T10:26:05.577Z,2.10
2018-03-17T10:28:33.576Z,1.80
2018-03-17T10:31:01.620Z,1.60
2018-03-17T10:33:29.625Z,1.50
2018-03-17T10:35:58.406Z,1.70
2018-03-17T10:38:26.443Z,1.70
2018-03-17T10:40:54.424Z,1.80
2018-03-17T10:43:22.421Z,2.00
2018-03-17T10:45:50.432Z,1.70
2018-03-17T10:48:19.969Z,1.70
2018-03-17T10:50:48.720Z,1.80
2018-03-17T10:53:16.721Z,1.70
2018-03-17T10:55:44.724Z,1.60
2018-03-17T10:58:13.480Z,1.60
2018-03-17T11:00:47.316Z,1.50
2018-03-17T11:03:15.336Z,1.50
2018-03-17T11:05:43.316Z,1.50
2018-03-17T11:08:12.095Z,1.60
2018-03-17T11:10:40.089Z,1.50
2018-03-17T11:13:08.085Z,1.50
2018-03-17T11:15:36.860Z,2.00
2018-03-17T11:18:04.863Z,1.90
2018-03-17T11:20:33.631Z,1.80
2018-03-17T11:23:01.661Z,1.80
2018-03-17T11:25:29.645Z,1.80
2018-03-17T11:27:57.632Z,1.70
2018-03-17T11:30:25.761Z,1.50
2018-03-17T11:32:53.756Z,1.70
2018-03-17T11:35:21.746Z,1.80
2018-03-17T11:37:51.249Z,1.80
2018-03-17T11:40:19.256Z,1.80
2018-03-17T11:42:48.018Z,1.70
2018-03-17T11:45:16.034Z,1.60
2018-03-17T11:47:44.049Z,1.60
2018-03-17T11:50:12.793Z,1.60
2018-03-17T11:52:40.801Z,1.50
2018-03-17T11:55:08.803Z,1.50
2018-03-17T11:57:37.561Z,1.10
2018-03-17T12:00:05.565Z,1.10
2018-03-17T12:02:33.572Z,1.20
2018-03-17T12:05:02.355Z,1.30
2018-03-17T12:07:30.377Z,1.30
2018-03-17T12:09:58.365Z,1.20
2018-03-17T12:12:26.369Z,1.20
2018-03-17T12:14:54.369Z,1.30
2018-03-17T12:17:23.889Z,1.20
2018-03-17T12:19:53.400Z,1.20
2018-03-17T12:22:21.417Z,1.20
2018-03-17T12:24:49.393Z,1.30
2018-03-17T12:27:18.166Z,1.50
2018-03-17T12:29:46.176Z,1.50
2018-03-17T12:32:14.929Z,1.70
2018-03-17T12:34:42.936Z,1.60
2018-03-17T12:37:10.941Z,1.90
2018-03-17T12:39:38.922Z,1.80
2018-03-17T12:42:07.706Z,1.70
2018-03-17T12:44:35.703Z,1.70
2018-03-17T12:47:03.704Z,1.80
2018-03-17T12:49:32.469Z,1.60
2018-03-17T12:52:00.464Z,1.50
2018-03-17T12:54:28.465Z,1.40
2018-03-17T12:56:57.229Z,1.50
2018-03-17T12:59:25.225Z,1.50
2018-03-17T13:01:53.218Z,1.50
2018-03-17T13:04:21.987Z,1.80
2018-03-17T13:06:49.988Z,1.70
2018-03-17T13:09:17.976Z,1.60
2018-03-17T13:11:46.751Z,1.70
2018-03-17T13:14:14.789Z,1.60
2018-03-17T13:16:42.785Z,1.90
2018-03-17T13:19:22.692Z,1.90
2018-03-17T13:21:50.690Z,1.70
2018-03-17T13:24:19.440Z,1.70
2018-03-17T13:26:59.293Z,1.60
2018-03-17T13:29:27.297Z,1.70
2018-03-17T13:31:55.293Z,1.50
2018-03-17T13:34:23.289Z,1.40
2018-03-17T13:37:03.282Z,1.50
2018-03-17T13:39:32.056Z,1.30
2018-03-17T13:42:00.052Z,1.30
2018-03-17T13:44:28.845Z,1.70
2018-03-17T13:46:56.844Z,1.60
2018-03-17T13:49:25.617Z,1.60
2018-03-17T13:51:53.604Z,1.50
2018-03-17T13:54:21.600Z,1.40
2018-03-17T13:56:50.373Z,1.50
2018-03-17T13:59:18.365Z,1.50
2018-03-17T14:01:46.360Z,1.50
2018-03-17T14:04:14.361Z,1.40
2018-03-17T14:06:43.118Z,1.10
2018-03-17T14:09:11.120Z,1.00
2018-03-17T14:11:39.129Z,1.10
2018-03-17T14:14:07.880Z,1.10
2018-03-17T14:16:35.890Z,1.10
2018-03-17T14:19:03.883Z,1.30
2018-03-17T14:21:32.640Z,1.20
2018-03-17T14:24:00.632Z,1.10
2018-03-17T14:26:28.659Z,1.10
2018-03-17T14:28:57.432Z,1.10
2018-03-17T14:31:25.445Z,1.10
2018-03-17T14:33:54.210Z,1.10
2018-03-17T14:36:22.209Z,1.10
2018-03-17T14:38:50.205Z,1.00
2018-03-17T14:41:18.978Z,1.20
2018-03-17T14:43:46.962Z,1.20
2018-03-17T14:46:14.961Z,1.20
2018-03-17T14:48:43.720Z,0.90
2018-03-17T14:51:11.704Z,0.90
2018-03-17T14:53:39.712Z,0.80
2018-03-17T14:56:07.720Z,0.80
2018-03-17T14:58:36.485Z,0.50
2018-03-17T15:01:04.512Z,0.50
2018-03-17T15:03:33.273Z,0.40
2018-03-17T15:06:01.258Z,0.40
2018-03-17T15:08:29.272Z,0.40
2018-03-17T15:10:58.032Z,0.30
2018-03-17T15:13:26.033Z,0.20
2018-03-17T15:15:54.032Z,0.30
2018-03-17T15:18:22.808Z,0.30
2018-03-17T15:20:50.797Z,0.20
2018-03-17T15:23:18.809Z,0.30
2018-03-17T15:25:46.820Z,0.10
2018-03-17T15:28:14.805Z,0.20
2018-03-17T15:30:42.816Z,0.00
2018-03-17T15:33:10.821Z,0.00
2018-03-17T15:35:39.576Z,0.00
2018-03-17T15:38:08.400Z,0.10
2018-03-17T15:40:36.429Z,0.00
2018-03-17T15:43:05.186Z,0.10
2018-03-17T15:45:33.228Z,0.00
2018-03-17T15:48:01.262Z,0.10
2018-03-17T15:50:29.248Z,0.00
2018-03-17T15:52:57.261Z,-0.10
2018-03-17T15:55:25.282Z,-0.10
2018-03-17T15:57:53.272Z,-0.10
2018-03-17T16:00:21.321Z,-0.10
2018-03-17T16:02:49.324Z,-0.20
2018-03-17T16:05:17.336Z,-0.20
2018-03-17T16:07:45.340Z,-0.40
2018-03-17T16:10:14.129Z,-0.40
2018-03-17T16:12:42.160Z,-0.50
2018-03-17T16:15:10.917Z,-0.40
2018-03-17T16:17:39.697Z,-0.40
2018-03-17T16:20:07.698Z,-0.50
2018-03-17T16:22:35.700Z,-0.40
2018-03-17T16:25:04.485Z,-0.50
2018-03-17T16:27:33.253Z,-0.40
2018-03-17T16:30:02.097Z,-0.40
2018-03-17T16:32:30.940Z,-0.50
2018-03-17T16:34:58.929Z,-0.50
2018-03-17T16:37:26.940Z,-0.50
2018-03-17T16:39:54.951Z,-0.40
2018-03-17T16:42:23.705Z,-0.50
2018-03-17T16:44:51.721Z,-0.50
2018-03-17T16:47:22.472Z,-0.50
2018-03-17T16:49:51.249Z,-0.50
2018-03-17T16:52:19.276Z,-0.60
2018-03-17T16:54:48.061Z,-0.60
2018-03-17T16:57:16.072Z,-0.60
2018-03-17T16:59:44.082Z,-0.60
2018-03-17T17:02:12.086Z,-0.70
2018-03-17T17:04:40.102Z,-0.70
2018-03-17T17:07:08.886Z,-0.80
2018-03-17T17:09:37.648Z,-0.70
2018-03-17T17:12:05.671Z,-0.70
2018-03-17T17:14:33.673Z,-0.70
2018-03-17T17:17:01.694Z,-0.80
2018-03-17T17:19:29.701Z,-0.70
2018-03-17T17:21:57.713Z,-0.80
2018-03-17T17:24:26.476Z,-0.80
2018-03-17T17:26:54.501Z,-0.90
2018-03-17T17:29:23.289Z,-1.00
2018-03-17T17:31:53.078Z,-0.90
2018-03-17T17:34:21.104Z,-1.00
2018-03-17T17:36:49.884Z,-0.90
2018-03-17T17:39:17.896Z,-1.00
2018-03-17T17:41:46.662Z,-0.90
2018-03-17T17:44:14.678Z,-1.00
2018-03-17T17:46:43.444Z,-1.00
2018-03-17T17:49:11.456Z,-1.10
2018-03-17T17:51:41.236Z,-0.90
2018-03-17T17:54:09.245Z,-0.90
2018-03-17T17:56:37.273Z,-0.80
2018-03-17T17:59:05.323Z,-0.80
2018-03-17T18:01:34.110Z,-0.90
2018-03-17T18:04:02.096Z,-1.00
2018-03-17T18:06:30.123Z,-1.10
2018-03-17T18:08:58.115Z,-1.10
2018-03-17T18:11:26.129Z,-1.10
2018-03-17T18:13:54.123Z,-1.10
2018-03-17T18:16:22.122Z,-1.10
2018-03-17T18:18:50.892Z,-1.20
2018-03-17T18:21:18.909Z,-1.20
2018-03-17T18:23:47.713Z,-1.10
2018-03-17T18:26:16.503Z,-1.00
2018-03-17T18:28:44.510Z,-1.10
2018-03-17T18:31:12.525Z,-1.00
2018-03-17T18:33:41.743Z,-1.10
2018-03-17T18:36:09.744Z,-1.20
2018-03-17T18:38:37.753Z,-1.10
2018-03-17T18:41:06.542Z,-1.20
2018-03-17T18:43:34.573Z,-1.20
2018-03-17T18:46:02.583Z,-1.20
2018-03-17T18:48:30.616Z,-1.20
2018-03-17T18:50:59.439Z,-1.10
2018-03-17T18:53:27.374Z,-1.20
2018-03-17T18:55:55.389Z,-1.10
2018-03-17T18:58:23.397Z,-1.20
2018-03-17T19:00:51.417Z,-1.20
2018-03-17T19:03:19.432Z,-1.30
2018-03-17T19:05:47.452Z,-1.30
2018-03-17T19:08:15.457Z,-1.20
2018-03-17T19:10:43.469Z,-1.20
2018-03-17T19:13:12.248Z,-1.30
2018-03-17T19:15:40.270Z,-1.30
2018-03-17T19:18:09.032Z,-1.20
2018-03-17T19:20:37.031Z,-1.20
2018-03-17T19:23:05.793Z,-1.30
2018-03-17T19:25:33.814Z,-1.30
2018-03-17T19:28:01.806Z,-1.30
2018-03-17T19:30:30.578Z,-1.20
2018-03-17T19:32:58.572Z,-1.30
2018-03-17T19:35:27.344Z,-1.30
2018-03-17T19:37:55.341Z,-1.30
2018-03-17T19:40:23.349Z,-1.30
2018-03-17T19:42:52.119Z,-1.50
2018-03-17T19:45:20.116Z,-1.50
2018-03-17T19:47:48.125Z,-1.40
2018-03-17T19:50:16.140Z,-1.30
2018-03-17T19:52:46.069Z,-1.30
2018-03-17T19:55:14.189Z,-1.30
2018-03-17T19:57:42.204Z,-1.40
2018-03-17T20:00:10.196Z,-1.40
2018-03-17T20:02:38.212Z,-1.40
2018-03-17T20:05:06.221Z,-1.40
2018-03-17T20:07:34.213Z,-1.50
2018-03-17T20:10:02.225Z,-1.50
2018-03-17T20:12:30.244Z,-1.50
2018-03-17T20:14:58.237Z,-1.50
2018-03-17T20:17:26.246Z,-1.50
2018-03-17T20:19:55.026Z,-1.60
2018-03-17T20:22:23.024Z,-1.60
2018-03-17T20:24:51.033Z,-1.60
2018-03-17T20:27:19.057Z,-1.50
2018-03-17T20:29:47.061Z,-1.40
2018-03-17T20:32:15.052Z,-1.40
2018-03-17T20:34:43.320Z,-1.40
2018-03-17T20:37:11.313Z,-1.40
2018-03-17T20:39:39.330Z,-1.30
2018-03-17T20:42:08.101Z,-1.30
2018-03-17T20:44:36.144Z,-1.40
2018-03-17T20:47:04.096Z,-1.40
2018-03-17T20:49:32.877Z,-1.40
2018-03-17T20:52:00.869Z,-1.40
2018-03-17T20:54:29.695Z,-1.30
2018-03-17T20:56:57.663Z,-1.30
2018-03-17T20:59:26.426Z,-1.40
2018-03-17T21:01:56.338Z,-1.40
2018-03-17T21:04:24.384Z,-1.30
2018-03-17T21:06:52.375Z,-1.20
2018-03-17T21:09:20.390Z,-1.20
2018-03-17T21:11:48.388Z,-1.30
2018-03-17T21:14:16.383Z,-1.30
2018-03-17T21:16:45.356Z,-1.30
2018-03-17T21:19:13.361Z,-1.40
2018-03-17T21:21:41.376Z,-1.50
2018-03-17T21:24:10.157Z,-1.50
2018-03-17T21:26:38.166Z,-1.50
2018-03-17T21:29:06.925Z,-1.40
2018-03-17T21:31:34.932Z,-1.50
2018-03-17T21:34:02.984Z,-1.40
2018-03-17T21:36:30.989Z,-1.50
2018-03-17T21:38:58.993Z,-1.50
2018-03-17T21:41:27.016Z,-1.60
2018-03-17T21:43:55.018Z,-1.50
2018-03-17T21:46:23.057Z,-1.60
2018-03-17T21:48:51.070Z,-1.50
2018-03-17T21:51:19.063Z,-1.40
2018-03-17T21:53:47.060Z,-1.50
2018-03-17T21:56:15.069Z,-1.50
2018-03-17T21:58:43.833Z,-1.40
2018-03-17T22:01:11.845Z,-1.50
2018-03-17T22:03:40.620Z,-1.60
2018-03-17T22:06:08.613Z,-1.60
2018-03-17T22:08:36.621Z,-1.70
2018-03-17T22:11:05.406Z,-1.70
2018-03-17T22:13:34.191Z,-1.70
2018-03-17T22:16:02.186Z,-1.80
2018-03-17T22:18:30.198Z,-1.80
2018-03-17T22:20:58.188Z,-1.70
2018-03-17T22:23:26.191Z,-1.70
2018-03-17T22:25:54.200Z,-1.60
2018-03-17T22:28:22.196Z,-1.70
2018-03-17T22:30:50.223Z,-1.70
2018-03-17T22:33:18.228Z,-1.90
2018-03-17T22:35:46.241Z,-1.80
2018-03-17T22:38:14.245Z,-1.80
2018-03-17T22:40:43.027Z,-1.70
2018-03-17T22:43:11.034Z,-1.80
2018-03-17T22:45:39.796Z,-1.80
2018-03-17T22:48:07.806Z,-1.90
2018-03-17T22:50:36.556Z,-1.70
2018-03-17T22:53:05.573Z,-1.80
2018-03-17T22:55:33.597Z,-1.70
2018-03-17T22:58:02.392Z,-1.60
2018-03-17T23:00:30.400Z,-1.70
2018-03-17T23:02:58.405Z,-1.70
2018-03-17T23:05:26.400Z,-1.70
2018-03-17T23:07:54.408Z,-1.70
2018-03-17T23:10:22.428Z,-1.60
2018-03-17T23:12:50.431Z,-1.60
2018-03-17T23:15:18.489Z,-1.70
2018-03-17T23:17:46.465Z,-1.70
2018-03-17T23:20:15.224Z,-1.70
2018-03-17T23:22:43.244Z,-1.80
2018-03-17T23:25:13.030Z,-1.80
2018-03-17T23:27:41.029Z,-1.80
2018-03-17T23:30:09.041Z,-1.70
2018-03-17T23:32:37.811Z,-1.60
2018-03-17T23:35:05.812Z,-1.70
2018-03-17T23:37:34.801Z,-1.70
2018-03-17T23:40:02.886Z,-1.70
2018-03-17T23:42:30.907Z,-1.70
2018-03-17T23:44:58.909Z,-1.60
2018-03-17T23:47:26.924Z,-1.60
2018-03-17T23:49:54.941Z,-1.60
2018-03-17T23:52:22.981Z,-1.70
2018-03-17T23:54:50.980Z,-1.80
2018-03-17T23:57:18.972Z,-1.70
2018-03-17T23:59:47.767Z,-1.80
